Time;durP1;ratioP1;P1;durP2;ratioP2;P2;SDS_P1;SDS_P2;PMS_P1;PMS_P2;Temp;Humidity;BMP_temperature;BMP_pressure;BME280_temperature;BME280_humidity;BME280_pressure;Samples;Min_cycle;Max_cycle;Signal;HPM_P1;HPM_P2
2022/03/31 00:02:11;;;;;;;16.83;13.33;;;;;;;;;;5060197;28;20683;-73
2022/03/31 00:04:38;;;;;;;16.50;12.83;;;;;;;;;;5060453;28;20211;-74
2022/03/31 00:07:05;;;;;;;17.47;13.10;;;;;;;;;;5060632;28;20319;-74
2022/03/31 00:09:32;;;;;;;15.60;12.47;;;;;;;;;;5061224;28;20193;-74
2022/03/31 00:11:59;;;;;;;17.93;13.50;;;;;;;;;;5060878;28;20265;-74
2022/03/31 00:14:28;;;;;;;15.17;12.07;;;;;;;;;;5060265;28;20587;-74
2022/03/31 00:16:54;;;;;;;13.77;11.33;;;;;;;;;;5060673;28;20587;-71
2022/03/31 00:19:21;;;;;;;16.73;13.27;;;;;;;;;;5040641;28;20218;-74
2022/03/31 00:21:48;;;;;;;17.40;13.90;;;;;;;;;;5061130;28;20667;-74
2022/03/31 00:24:15;;;;;;;16.03;12.10;;;;;;;;;;5061916;28;20254;-74
2022/03/31 00:26:41;;;;;;;15.10;12.17;;;;;;;;;;5058636;28;20661;-74
2022/03/31 00:29:07;;;;;;;15.73;12.57;;;;;;;;;;5059850;28;20189;-74
2022/03/31 00:31:34;;;;;;;17.30;12.47;;;;;;;;;;5061231;28;20186;-74
2022/03/31 00:34:00;;;;;;;17.10;12.93;;;;;;;;;;5060207;28;20210;-74
2022/03/31 00:36:26;;;;;;;19.03;14.73;;;;;;;;;;5060711;28;20606;-74
2022/03/31 00:41:38;;;;;;;17.37;13.50;;;;;;;;;;5060457;28;20177;-74
2022/03/31 00:44:05;;;;;;;15.90;12.73;;;;;;;;;;5063912;28;20205;-74
2022/03/31 00:46:31;;;;;;;20.80;15.57;;;;;;;;;;5063717;28;20189;-74
2022/03/31 00:48:57;;;;;;;17.77;14.37;;;;;;;;;;5063694;28;20231;-74
2022/03/31 00:51:24;;;;;;;17.27;13.23;;;;;;;;;;5064311;28;20185;-74
2022/03/31 00:53:51;;;;;;;16.20;13.47;;;;;;;;;;5063918;28;20283;-74
2022/03/31 00:56:19;;;;;;;17.33;12.60;;;;;;;;;;5064621;28;20240;-74
2022/03/31 00:58:45;;;;;;;16.50;13.10;;;;;;;;;;5064027;28;20205;-73
2022/03/31 01:01:14;;;;;;;17.73;13.53;;;;;;;;;;5063688;28;20181;-73
2022/03/31 01:03:40;;;;;;;18.57;14.30;;;;;;;;;;5064132;28;20281;-74
2022/03/31 01:06:06;;;;;;;19.37;14.63;;;;;;;;;;5062777;28;20657;-74
2022/03/31 01:08:33;;;;;;;16.50;13.27;;;;;;;;;;5062893;28;20267;-74
2022/03/31 01:10:59;;;;;;;17.27;13.33;;;;;;;;;;5062325;28;20185;-72
2022/03/31 01:13:26;;;;;;;21.83;16.03;;;;;;;;;;5060815;28;20712;-74
2022/03/31 01:15:52;;;;;;;21.30;16.03;;;;;;;;;;5064250;28;21108;-74
2022/03/31 01:18:19;;;;;;;21.17;16.93;;;;;;;;;;5061165;28;20658;-74
2022/03/31 01:21:10;;;;;;;22.53;16.37;;;;;;;;;;5062828;28;20173;-74
2022/03/31 01:23:38;;;;;;;20.47;15.33;;;;;;;;;;5061352;28;20292;-74
2022/03/31 01:26:10;;;;;;;22.07;16.47;;;;;;;;;;5063389;28;20192;-74
2022/03/31 01:28:41;;;;;;;23.17;16.77;;;;;;;;;;5062120;28;20189;-74
2022/03/31 01:31:07;;;;;;;23.13;17.03;;;;;;;;;;5060945;28;20641;-74
2022/03/31 01:33:33;;;;;;;21.43;15.93;;;;;;;;;;5063730;28;20204;-74
2022/03/31 01:35:59;;;;;;;24.17;18.03;;;;;;;;;;5062154;28;20276;-72
2022/03/31 01:38:26;;;;;;;22.83;16.53;;;;;;;;;;5061899;28;20198;-73
2022/03/31 01:40:52;;;;;;;24.37;16.90;;;;;;;;;;5062743;28;20182;-74
2022/03/31 01:43:20;;;;;;;24.53;17.07;;;;;;;;;;5061802;28;20217;-74
2022/03/31 01:45:49;;;;;;;20.27;15.77;;;;;;;;;;5061740;28;20189;-74
2022/03/31 01:48:16;;;;;;;20.43;15.43;;;;;;;;;;5059687;28;20241;-73
2022/03/31 01:50:42;;;;;;;20.13;15.13;;;;;;;;;;5062108;28;20181;-73
2022/03/31 01:53:09;;;;;;;19.90;14.77;;;;;;;;;;5059799;28;20308;-74
2022/03/31 01:55:35;;;;;;;20.53;15.87;;;;;;;;;;5062190;28;20190;-74
2022/03/31 01:58:01;;;;;;;21.33;16.20;;;;;;;;;;5060303;28;20269;-74
2022/03/31 02:00:28;;;;;;;22.43;15.90;;;;;;;;;;5060269;28;20267;-74
2022/03/31 02:02:54;;;;;;;22.80;17.53;;;;;;;;;;5063329;28;20614;-72
2022/03/31 02:05:21;;;;;;;22.77;16.50;;;;;;;;;;5062286;28;20189;-73
2022/03/31 02:07:47;;;;;;;21.73;16.17;;;;;;;;;;5060005;28;20231;-74
2022/03/31 02:10:14;;;;;;;22.80;17.13;;;;;;;;;;5061752;28;20185;-74
2022/03/31 02:12:41;;;;;;;21.30;15.83;;;;;;;;;;5059016;28;20272;-74
2022/03/31 02:15:07;;;;;;;21.67;16.23;;;;;;;;;;5061982;28;20185;-74
2022/03/31 02:17:34;;;;;;;20.37;15.40;;;;;;;;;;5062207;28;20189;-74
2022/03/31 02:20:01;;;;;;;20.20;16.03;;;;;;;;;;5059740;28;20230;-74
2022/03/31 02:22:27;;;;;;;22.47;16.73;;;;;;;;;;5059695;28;20181;-73
2022/03/31 02:24:53;;;;;;;21.53;16.13;;;;;;;;;;5061472;28;20588;-73
2022/03/31 02:27:19;;;;;;;26.37;17.80;;;;;;;;;;5065485;28;20200;-74
2022/03/31 02:29:46;;;;;;;23.00;16.63;;;;;;;;;;5058698;28;20185;-72
2022/03/31 02:32:12;;;;;;;20.97;15.53;;;;;;;;;;5062370;28;20802;-74
2022/03/31 02:34:38;;;;;;;21.53;16.20;;;;;;;;;;5060025;28;20205;-74
2022/03/31 02:37:04;;;;;;;22.80;15.90;;;;;;;;;;5061196;28;20220;-74
2022/03/31 02:39:31;;;;;;;21.87;16.33;;;;;;;;;;5060186;28;20654;-74
2022/03/31 02:41:57;;;;;;;21.83;16.47;;;;;;;;;;5061710;28;20950;-74
2022/03/31 02:44:24;;;;;;;24.33;16.27;;;;;;;;;;5061658;28;20213;-73
2022/03/31 02:46:54;;;;;;;22.30;16.23;;;;;;;;;;5059765;28;20173;-74
2022/03/31 02:49:20;;;;;;;22.13;16.30;;;;;;;;;;5060712;28;20221;-72
2022/03/31 02:51:47;;;;;;;23.93;17.80;;;;;;;;;;5059985;28;20177;-74
2022/03/31 02:56:57;;;;;;;28.43;21.20;;;;;;;;;;5061896;28;20267;-74
2022/03/31 02:59:24;;;;;;;24.20;17.10;;;;;;;;;;5060881;28;21175;-74
2022/03/31 03:01:50;;;;;;;23.87;17.33;;;;;;;;;;5060053;28;20189;-74
2022/03/31 03:04:17;;;;;;;24.83;17.73;;;;;;;;;;5061138;28;20610;-72
2022/03/31 03:06:43;;;;;;;22.80;16.73;;;;;;;;;;5061883;28;20261;-74
2022/03/31 03:09:09;;;;;;;21.60;15.90;;;;;;;;;;5060459;28;20300;-74
2022/03/31 03:11:35;;;;;;;24.17;17.87;;;;;;;;;;5059601;28;20188;-73
2022/03/31 03:14:02;;;;;;;24.27;17.03;;;;;;;;;;5061759;28;20198;-74
2022/03/31 03:16:28;;;;;;;20.50;15.63;;;;;;;;;;5061260;28;20664;-74
2022/03/31 03:18:54;;;;;;;20.93;15.13;;;;;;;;;;5060338;28;20213;-72
2022/03/31 03:21:21;;;;;;;22.57;16.57;;;;;;;;;;5059639;28;20545;-72
2022/03/31 03:23:48;;;;;;;20.53;15.63;;;;;;;;;;5059471;28;20276;-72
2022/03/31 03:26:15;;;;;;;20.67;14.87;;;;;;;;;;5059148;28;20255;-72
2022/03/31 03:28:41;;;;;;;22.47;16.20;;;;;;;;;;5061076;28;20192;-71
2022/03/31 03:31:08;;;;;;;20.47;14.87;;;;;;;;;;5059042;28;20203;-71
2022/03/31 03:33:35;;;;;;;21.57;15.80;;;;;;;;;;5057572;28;20219;-72
2022/03/31 03:36:03;;;;;;;20.93;15.80;;;;;;;;;;5076597;28;20247;-71
2022/03/31 03:38:31;;;;;;;23.07;16.30;;;;;;;;;;5060974;28;20194;-73
2022/03/31 03:40:57;;;;;;;22.03;16.47;;;;;;;;;;5058608;28;20181;-73
2022/03/31 03:43:23;;;;;;;21.87;15.60;;;;;;;;;;5058821;28;20213;-72
2022/03/31 03:45:50;;;;;;;21.63;15.13;;;;;;;;;;5060591;28;20186;-70
2022/03/31 03:48:16;;;;;;;21.87;15.87;;;;;;;;;;5060582;28;20201;-72
2022/03/31 03:50:43;;;;;;;20.93;15.10;;;;;;;;;;5060272;28;20192;-73
2022/03/31 03:53:09;;;;;;;19.67;14.63;;;;;;;;;;5059258;28;20217;-73
2022/03/31 03:55:37;;;;;;;22.60;16.00;;;;;;;;;;5061068;28;20182;-73
2022/03/31 03:58:04;;;;;;;22.20;16.30;;;;;;;;;;5060322;28;20241;-72
2022/03/31 04:00:30;;;;;;;22.03;16.37;;;;;;;;;;5061953;28;20232;-73
2022/03/31 04:02:56;;;;;;;21.97;16.63;;;;;;;;;;5060871;28;20225;-72
2022/03/31 04:05:23;;;;;;;23.50;17.23;;;;;;;;;;5059660;28;20178;-72
2022/03/31 04:07:49;;;;;;;22.23;16.47;;;;;;;;;;5060167;28;20205;-72
2022/03/31 04:10:15;;;;;;;24.07;17.27;;;;;;;;;;5060087;28;20276;-73
2022/03/31 04:12:42;;;;;;;22.90;17.23;;;;;;;;;;5059701;28;20200;-73
2022/03/31 04:15:09;;;;;;;22.93;16.23;;;;;;;;;;5060546;28;20190;-73
2022/03/31 04:17:36;;;;;;;22.20;16.73;;;;;;;;;;5063299;28;20188;-73
2022/03/31 04:20:03;;;;;;;25.77;18.40;;;;;;;;;;5063050;28;20210;-73
2022/03/31 04:22:33;;;;;;;21.23;15.70;;;;;;;;;;5063900;28;20178;-73
2022/03/31 04:25:00;;;;;;;23.00;16.07;;;;;;;;;;5063624;28;20202;-73
2022/03/31 04:27:26;;;;;;;22.03;16.23;;;;;;;;;;5063949;28;20181;-73
2022/03/31 04:29:53;;;;;;;19.97;15.07;;;;;;;;;;5065921;28;20185;-73
2022/03/31 04:32:19;;;;;;;22.10;16.63;;;;;;;;;;5063785;28;20181;-73
2022/03/31 04:34:45;;;;;;;22.73;16.57;;;;;;;;;;5063984;28;20205;-72
2022/03/31 04:37:11;;;;;;;23.67;16.27;;;;;;;;;;5062712;28;20204;-73
2022/03/31 04:39:37;;;;;;;21.03;15.47;;;;;;;;;;5064142;28;20216;-73
2022/03/31 04:42:04;;;;;;;23.07;16.53;;;;;;;;;;5061791;28;20178;-73
2022/03/31 04:44:30;;;;;;;21.77;16.07;;;;;;;;;;5064445;28;20213;-72
2022/03/31 04:46:56;;;;;;;26.40;18.33;;;;;;;;;;5062809;28;20246;-72
2022/03/31 04:49:22;;;;;;;23.27;16.87;;;;;;;;;;5062368;28;20185;-72
2022/03/31 04:51:48;;;;;;;21.10;16.13;;;;;;;;;;5062179;28;20185;-72
2022/03/31 04:54:15;;;;;;;23.77;17.90;;;;;;;;;;5062838;28;20215;-73
2022/03/31 04:56:41;;;;;;;21.43;16.33;;;;;;;;;;5063350;28;20212;-73
2022/03/31 04:59:07;;;;;;;20.67;15.53;;;;;;;;;;5063397;28;20571;-73
2022/03/31 05:01:34;;;;;;;25.73;18.63;;;;;;;;;;5062016;28;20189;-73
2022/03/31 05:04:00;;;;;;;21.63;16.90;;;;;;;;;;5063038;28;20758;-73
2022/03/31 05:06:26;;;;;;;20.13;15.40;;;;;;;;;;5061812;28;20187;-73
2022/03/31 05:08:52;;;;;;;20.07;15.67;;;;;;;;;;5062327;28;20549;-70
2022/03/31 05:11:19;;;;;;;20.20;16.00;;;;;;;;;;5061681;28;20185;-73
2022/03/31 05:13:45;;;;;;;21.63;16.40;;;;;;;;;;5063358;28;20212;-78
2022/03/31 05:16:11;;;;;;;20.43;15.67;;;;;;;;;;5062593;28;20235;-75
2022/03/31 05:18:37;;;;;;;23.10;17.27;;;;;;;;;;5064849;28;20186;-77
2022/03/31 05:21:04;;;;;;;21.33;16.33;;;;;;;;;;5059995;28;20656;-73
2022/03/31 05:23:30;;;;;;;22.63;16.77;;;;;;;;;;5059036;28;20212;-73
2022/03/31 05:25:57;;;;;;;23.47;17.70;;;;;;;;;;5060074;28;20596;-75
2022/03/31 05:28:23;;;;;;;22.30;16.80;;;;;;;;;;5060387;28;20175;-76
2022/03/31 05:30:49;;;;;;;22.50;16.70;;;;;;;;;;5062670;28;20305;-71
2022/03/31 05:33:16;;;;;;;21.00;16.10;;;;;;;;;;5062287;28;20757;-71
2022/03/31 05:35:42;;;;;;;21.27;16.10;;;;;;;;;;5060566;28;20185;-72
2022/03/31 05:38:08;;;;;;;22.33;16.33;;;;;;;;;;5067662;28;20173;-71
2022/03/31 05:40:34;;;;;;;22.93;17.20;;;;;;;;;;5061537;28;20220;-72
2022/03/31 05:43:01;;;;;;;23.33;16.00;;;;;;;;;;5061757;28;20676;-75
2022/03/31 05:45:27;;;;;;;20.83;15.43;;;;;;;;;;5063044;28;20190;-73
2022/03/31 05:47:54;;;;;;;21.60;16.73;;;;;;;;;;5062355;28;20206;-75
2022/03/31 05:50:20;;;;;;;20.70;15.57;;;;;;;;;;5062117;28;20551;-71
2022/03/31 05:52:46;;;;;;;20.30;15.07;;;;;;;;;;5061688;28;20185;-72
2022/03/31 05:55:14;;;;;;;18.97;15.07;;;;;;;;;;5062964;28;20713;-74
2022/03/31 05:57:40;;;;;;;19.60;14.80;;;;;;;;;;5064050;28;20671;-75
2022/03/31 06:00:08;;;;;;;20.63;15.83;;;;;;;;;;5059872;28;20216;-72
2022/03/31 06:02:38;;;;;;;19.97;15.67;;;;;;;;;;5062407;28;20680;-75
2022/03/31 06:05:04;;;;;;;20.70;16.13;;;;;;;;;;5061763;28;20186;-74
2022/03/31 06:07:30;;;;;;;19.07;14.40;;;;;;;;;;5062222;28;20186;-74
2022/03/31 06:09:56;;;;;;;18.70;14.17;;;;;;;;;;5060059;28;20234;-74
2022/03/31 06:12:22;;;;;;;16.33;13.30;;;;;;;;;;5062594;28;20181;-74
2022/03/31 06:14:48;;;;;;;18.53;14.57;;;;;;;;;;5061239;28;20280;-74
2022/03/31 06:17:14;;;;;;;19.17;14.63;;;;;;;;;;5062082;28;20177;-74
2022/03/31 06:19:41;;;;;;;17.47;13.50;;;;;;;;;;5060462;28;20210;-74
2022/03/31 06:22:07;;;;;;;20.30;14.80;;;;;;;;;;5060729;28;20565;-74
2022/03/31 06:24:33;;;;;;;19.30;14.03;;;;;;;;;;5062130;28;20205;-74
2022/03/31 06:27:00;;;;;;;16.90;13.20;;;;;;;;;;5062037;28;20677;-74
2022/03/31 06:29:27;;;;;;;16.80;13.43;;;;;;;;;;5061172;28;20197;-74
2022/03/31 06:31:53;;;;;;;15.87;12.30;;;;;;;;;;5061220;28;20196;-74
2022/03/31 06:34:21;;;;;;;16.83;13.30;;;;;;;;;;5062522;28;20343;-74
2022/03/31 06:36:48;;;;;;;16.83;12.80;;;;;;;;;;5060185;28;20574;-74
2022/03/31 06:39:14;;;;;;;14.83;12.40;;;;;;;;;;5061266;28;20212;-73
2022/03/31 06:41:42;;;;;;;17.70;13.70;;;;;;;;;;5059909;28;20206;-74
2022/03/31 06:44:09;;;;;;;17.13;13.57;;;;;;;;;;5060967;28;20562;-73
2022/03/31 06:46:36;;;;;;;16.97;13.40;;;;;;;;;;5061600;28;20186;-74
2022/03/31 06:49:02;;;;;;;14.97;12.40;;;;;;;;;;5060982;28;20239;-74
2022/03/31 06:51:28;;;;;;;16.07;12.63;;;;;;;;;;5061585;28;20238;-75
2022/03/31 06:53:59;;;;;;;17.33;12.20;;;;;;;;;;5059992;28;20754;-73
2022/03/31 06:56:27;;;;;;;16.53;12.90;;;;;;;;;;5060542;28;20193;-74
2022/03/31 06:58:54;;;;;;;15.93;12.67;;;;;;;;;;5061211;28;20217;-74
2022/03/31 07:01:20;;;;;;;18.00;13.40;;;;;;;;;;5060157;28;20259;-74
2022/03/31 07:03:47;;;;;;;16.93;13.13;;;;;;;;;;5059596;28;20280;-74
2022/03/31 07:06:14;;;;;;;15.83;12.77;;;;;;;;;;5060463;28;20223;-74
2022/03/31 07:08:40;;;;;;;18.17;13.93;;;;;;;;;;5061378;28;20188;-75
2022/03/31 07:11:07;;;;;;;17.87;14.23;;;;;;;;;;5059452;28;20220;-74
2022/03/31 07:13:34;;;;;;;18.60;14.33;;;;;;;;;;5059606;28;20197;-74
2022/03/31 07:16:00;;;;;;;20.93;15.60;;;;;;;;;;5061249;28;20209;-74
2022/03/31 07:18:26;;;;;;;17.53;14.20;;;;;;;;;;5061214;28;20777;-74
2022/03/31 07:20:52;;;;;;;18.50;13.13;;;;;;;;;;5061383;28;20185;-74
2022/03/31 07:23:19;;;;;;;17.67;13.83;;;;;;;;;;5059542;28;20223;-74
2022/03/31 07:25:46;;;;;;;16.00;13.30;;;;;;;;;;5059393;28;20227;-73
2022/03/31 07:28:12;;;;;;;15.73;12.53;;;;;;;;;;5061143;28;20177;-74
2022/03/31 07:30:38;;;;;;;16.17;13.03;;;;;;;;;;5061352;28;20554;-74
2022/03/31 07:33:04;;;;;;;15.60;12.97;;;;;;;;;;5058631;28;20220;-73
2022/03/31 07:35:32;;;;;;;15.77;12.93;;;;;;;;;;5060463;28;20177;-74
2022/03/31 07:37:58;;;;;;;16.47;12.27;;;;;;;;;;5061134;28;20208;-74
2022/03/31 07:40:25;;;;;;;15.33;12.97;;;;;;;;;;5059246;28;20205;-74
2022/03/31 07:42:52;;;;;;;17.00;13.73;;;;;;;;;;5061559;28;20275;-74
2022/03/31 07:45:19;;;;;;;16.60;13.27;;;;;;;;;;5061054;28;20234;-73
2022/03/31 07:47:46;;;;;;;16.60;13.27;;;;;;;;;;5060676;28;20189;-74
2022/03/31 07:50:13;;;;;;;19.53;14.43;;;;;;;;;;5061122;28;20182;-74
2022/03/31 07:52:40;;;;;;;15.97;12.90;;;;;;;;;;5064513;28;20185;-73
2022/03/31 07:55:07;;;;;;;17.47;14.53;;;;;;;;;;5065178;28;20276;-74
2022/03/31 07:57:34;;;;;;;16.77;12.33;;;;;;;;;;5064569;28;20345;-74
2022/03/31 08:00:00;;;;;;;17.10;13.10;;;;;;;;;;5064039;28;20672;-74
2022/03/31 08:02:27;;;;;;;19.97;15.33;;;;;;;;;;5063669;28;20212;-74
2022/03/31 08:04:54;;;;;;;16.70;14.37;;;;;;;;;;5063787;28;20583;-74
2022/03/31 08:07:21;;;;;;;15.73;13.00;;;;;;;;;;5064444;28;20780;-74
2022/03/31 08:09:47;;;;;;;16.17;12.80;;;;;;;;;;5064522;28;20649;-74
2022/03/31 08:12:13;;;;;;;18.33;13.57;;;;;;;;;;5064254;28;21048;-74
2022/03/31 08:14:40;;;;;;;21.77;13.83;;;;;;;;;;5063951;28;21071;-74
2022/03/31 08:17:06;;;;;;;20.10;15.60;;;;;;;;;;5065273;28;20181;-74
2022/03/31 08:19:33;;;;;;;19.20;13.90;;;;;;;;;;5064395;28;20244;-74
2022/03/31 08:22:01;;;;;;;16.13;13.30;;;;;;;;;;5063299;28;20261;-74
2022/03/31 08:24:27;;;;;;;16.60;12.97;;;;;;;;;;5064612;28;20222;-74
2022/03/31 08:26:54;;;;;;;16.90;13.07;;;;;;;;;;5064395;28;20200;-74
2022/03/31 08:29:20;;;;;;;17.43;12.50;;;;;;;;;;5063586;28;20197;-74
2022/03/31 08:31:46;;;;;;;14.73;12.00;;;;;;;;;;5063140;28;20191;-74
2022/03/31 08:34:12;;;;;;;18.13;14.23;;;;;;;;;;5064543;28;20228;-74
2022/03/31 08:36:38;;;;;;;16.60;13.50;;;;;;;;;;5064061;28;20178;-74
2022/03/31 08:39:05;;;;;;;16.37;13.37;;;;;;;;;;5062982;28;20202;-75
2022/03/31 08:41:32;;;;;;;16.97;13.53;;;;;;;;;;5069039;28;20181;-74
2022/03/31 08:43:58;;;;;;;19.40;14.30;;;;;;;;;;5063391;28;20293;-74
2022/03/31 08:46:30;;;;;;;16.77;13.33;;;;;;;;;;5063063;28;20250;-75
2022/03/31 08:48:57;;;;;;;17.13;13.10;;;;;;;;;;5063462;28;20196;-74
2022/03/31 08:51:26;;;;;;;16.93;14.47;;;;;;;;;;5063661;28;20189;-73
2022/03/31 08:54:05;;;;;;;15.80;12.70;;;;;;;;;;5062696;28;20209;-72
2022/03/31 08:56:35;;;;;;;17.37;13.73;;;;;;;;;;5077241;28;20177;-74
2022/03/31 08:59:01;;;;;;;15.97;13.27;;;;;;;;;;5064062;28;20538;-74
2022/03/31 09:01:28;;;;;;;17.10;12.90;;;;;;;;;;5062440;28;20223;-74
2022/03/31 09:03:54;;;;;;;17.27;13.67;;;;;;;;;;5060922;28;20232;-74
2022/03/31 09:06:31;;;;;;;14.83;12.80;;;;;;;;;;5063274;28;20311;-73
2022/03/31 09:09:02;;;;;;;14.80;12.93;;;;;;;;;;5062325;28;20186;-72
2022/03/31 09:11:33;;;;;;;17.10;13.57;;;;;;;;;;5061291;28;20262;-74
2022/03/31 09:14:03;;;;;;;18.60;14.13;;;;;;;;;;5061427;28;20549;-74
2022/03/31 09:16:37;;;;;;;17.20;14.13;;;;;;;;;;5062553;28;20247;-74
2022/03/31 09:19:05;;;;;;;15.23;12.43;;;;;;;;;;5061455;28;20601;-74
2022/03/31 09:21:35;;;;;;;17.80;13.03;;;;;;;;;;5061791;28;20263;-74
2022/03/31 09:24:05;;;;;;;17.33;14.47;;;;;;;;;;5062415;28;20680;-74
2022/03/31 09:26:47;;;;;;;22.13;15.07;;;;;;;;;;5063120;28;20186;-74
2022/03/31 09:29:26;;;;;;;16.87;14.07;;;;;;;;;;5063459;28;20672;-74
2022/03/31 09:31:53;;;;;;;19.33;14.13;;;;;;;;;;5062116;28;20258;-74
2022/03/31 09:34:23;;;;;;;16.07;13.77;;;;;;;;;;5062347;28;20212;-74
2022/03/31 09:36:55;;;;;;;16.50;14.20;;;;;;;;;;5062291;28;20228;-74
2022/03/31 09:39:22;;;;;;;17.53;14.10;;;;;;;;;;5061873;28;20237;-74
2022/03/31 09:41:51;;;;;;;16.77;13.30;;;;;;;;;;5061859;28;20173;-74
2022/03/31 09:44:27;;;;;;;17.77;14.37;;;;;;;;;;5062430;28;20196;-74
2022/03/31 09:46:53;;;;;;;17.73;14.13;;;;;;;;;;5067033;28;20660;-74
2022/03/31 09:49:24;;;;;;;16.27;12.80;;;;;;;;;;5061770;28;20193;-74
2022/03/31 09:51:52;;;;;;;18.03;13.67;;;;;;;;;;5063064;28;20197;-73
2022/03/31 09:54:19;;;;;;;18.17;14.03;;;;;;;;;;5061204;28;20279;-73
2022/03/31 09:56:47;;;;;;;15.03;11.70;;;;;;;;;;5063014;28;20192;-73
2022/03/31 09:59:15;;;;;;;15.60;12.30;;;;;;;;;;5061444;28;20303;-74
2022/03/31 10:01:42;;;;;;;16.17;12.60;;;;;;;;;;5062496;28;20244;-73
2022/03/31 10:04:12;;;;;;;15.73;13.43;;;;;;;;;;5061125;28;20201;-73
2022/03/31 10:06:41;;;;;;;16.23;13.10;;;;;;;;;;5060103;28;20278;-73
2022/03/31 10:09:08;;;;;;;16.40;13.63;;;;;;;;;;5061496;28;20274;-74
2022/03/31 10:11:39;;;;;;;16.93;14.03;;;;;;;;;;5062059;28;20526;-74
2022/03/31 10:14:13;;;;;;;17.60;13.17;;;;;;;;;;5062182;28;20212;-73
2022/03/31 10:16:44;;;;;;;14.60;11.87;;;;;;;;;;5060378;28;20544;-74
2022/03/31 10:19:11;;;;;;;14.23;11.70;;;;;;;;;;5060780;28;20327;-73
2022/03/31 10:21:38;;;;;;;14.83;12.63;;;;;;;;;;5061382;28;20177;-73
2022/03/31 10:26:58;;;;;;;14.83;12.07;;;;;;;;;;5061944;28;20189;-74
2022/03/31 10:29:36;;;;;;;15.17;12.57;;;;;;;;;;5060358;28;20193;-73
2022/03/31 10:32:14;;;;;;;16.73;13.03;;;;;;;;;;5061959;28;20495;-74
2022/03/31 10:34:44;;;;;;;14.53;12.20;;;;;;;;;;5061221;28;20209;-73
2022/03/31 10:37:12;;;;;;;13.70;11.87;;;;;;;;;;5061087;28;20294;-73
2022/03/31 10:39:38;;;;;;;12.90;10.97;;;;;;;;;;5060634;28;20358;-74
2022/03/31 10:42:07;;;;;;;16.73;12.07;;;;;;;;;;5060612;28;20264;-75
2022/03/31 10:44:34;;;;;;;13.50;11.13;;;;;;;;;;5061052;28;20220;-74
2022/03/31 10:47:03;;;;;;;14.00;11.27;;;;;;;;;;5060780;28;20721;-74
2022/03/31 10:49:34;;;;;;;14.77;12.40;;;;;;;;;;5061552;28;20247;-72
2022/03/31 10:52:11;;;;;;;16.17;12.87;;;;;;;;;;5060970;28;20182;-73
2022/03/31 10:54:38;;;;;;;15.57;11.73;;;;;;;;;;5064297;28;20258;-76
2022/03/31 10:57:08;;;;;;;11.67;10.13;;;;;;;;;;5058456;28;20189;-72
2022/03/31 10:59:35;;;;;;;13.90;11.50;;;;;;;;;;5060597;28;20212;-73
2022/03/31 11:02:07;;;;;;;14.67;11.37;;;;;;;;;;5056872;28;20209;-73
2022/03/31 11:04:42;;;;;;;13.03;10.73;;;;;;;;;;5060714;28;20213;-75
2022/03/31 11:07:30;;;;;;;12.80;10.50;;;;;;;;;;5059808;28;20321;-72
2022/03/31 11:10:11;;;;;;;11.47;9.87;;;;;;;;;;5058174;28;20621;-72
2022/03/31 11:12:38;;;;;;;12.00;9.60;;;;;;;;;;5057718;28;20209;-72
2022/03/31 11:15:09;;;;;;;12.10;10.27;;;;;;;;;;5058987;28;20303;-72
2022/03/31 11:17:42;;;;;;;11.43;10.00;;;;;;;;;;5060128;28;20666;-72
2022/03/31 11:20:24;;;;;;;11.33;9.87;;;;;;;;;;5053199;28;20228;-72
2022/03/31 11:23:06;;;;;;;12.23;9.63;;;;;;;;;;5068558;28;20181;-72
2022/03/31 11:25:37;;;;;;;11.60;9.03;;;;;;;;;;5049866;28;20181;-72
2022/03/31 11:28:07;;;;;;;11.50;9.07;;;;;;;;;;5047235;28;20184;-72
2022/03/31 11:30:39;;;;;;;10.30;9.17;;;;;;;;;;5047135;28;20193;-71
2022/03/31 11:33:09;;;;;;;9.17;7.87;;;;;;;;;;5043859;28;20205;-72
2022/03/31 11:35:36;;;;;;;10.20;8.60;;;;;;;;;;5046807;28;20189;-72
2022/03/31 11:38:03;;;;;;;11.63;9.57;;;;;;;;;;5054332;28;20597;-71
2022/03/31 11:40:33;;;;;;;10.50;8.50;;;;;;;;;;5048273;28;20209;-72
2022/03/31 11:43:01;;;;;;;11.97;9.07;;;;;;;;;;5045455;28;20264;-74
2022/03/31 11:45:36;;;;;;;13.93;10.90;;;;;;;;;;5062031;28;20177;-75
2022/03/31 11:48:09;;;;;;;13.87;9.90;;;;;;;;;;5044168;28;20181;-72
2022/03/31 11:50:39;;;;;;;11.37;9.13;;;;;;;;;;5026785;28;20280;-72
2022/03/31 11:53:18;;;;;;;11.60;9.50;;;;;;;;;;5041189;28;20265;-70
2022/03/31 11:56:01;;;;;;;11.90;10.03;;;;;;;;;;5043563;28;21340;-72
2022/03/31 11:58:30;;;;;;;13.00;10.47;;;;;;;;;;5070267;28;20648;-72
2022/03/31 12:00:57;;;;;;;12.23;9.50;;;;;;;;;;5046039;28;20331;-71
2022/03/31 12:03:23;;;;;;;12.67;9.60;;;;;;;;;;5044585;28;20209;-72
2022/03/31 12:05:58;;;;;;;11.27;9.90;;;;;;;;;;5045902;28;20180;-77
2022/03/31 12:08:25;;;;;;;13.23;10.73;;;;;;;;;;5046622;28;20559;-72
2022/03/31 12:10:52;;;;;;;12.57;10.03;;;;;;;;;;5043379;28;22250;-72
2022/03/31 12:13:20;;;;;;;14.27;11.57;;;;;;;;;;5042321;28;20775;-71
2022/03/31 12:15:47;;;;;;;13.53;11.57;;;;;;;;;;5043671;28;20217;-72
2022/03/31 12:18:16;;;;;;;14.07;11.77;;;;;;;;;;5041207;28;20243;-73
2022/03/31 12:20:44;;;;;;;16.57;11.97;;;;;;;;;;5058433;28;20254;-71
2022/03/31 12:23:18;;;;;;;13.43;10.73;;;;;;;;;;5043950;28;20198;-72
2022/03/31 12:25:47;;;;;;;17.20;11.70;;;;;;;;;;5046910;28;20201;-72
2022/03/31 12:28:14;;;;;;;13.50;11.43;;;;;;;;;;5044298;28;20963;-72
2022/03/31 12:30:47;;;;;;;14.10;11.67;;;;;;;;;;5043797;28;20918;-72
2022/03/31 12:33:17;;;;;;;16.00;12.07;;;;;;;;;;5041738;28;20208;-72
2022/03/31 12:35:55;;;;;;;15.97;12.90;;;;;;;;;;5029406;28;20672;-72
2022/03/31 12:38:32;;;;;;;17.53;13.47;;;;;;;;;;5029121;28;22898;-72
2022/03/31 12:40:59;;;;;;;16.77;13.23;;;;;;;;;;5061348;28;20209;-72
2022/03/31 12:43:30;;;;;;;16.67;12.47;;;;;;;;;;5061710;28;20280;-72
2022/03/31 12:45:56;;;;;;;17.67;12.53;;;;;;;;;;5079566;28;20195;-72
2022/03/31 12:48:26;;;;;;;16.50;11.97;;;;;;;;;;5061988;28;20218;-72
2022/03/31 12:51:02;;;;;;;20.70;13.60;;;;;;;;;;5061777;28;20180;-71
2022/03/31 12:53:41;;;;;;;17.13;13.47;;;;;;;;;;5061005;28;20291;-71
2022/03/31 12:56:09;;;;;;;19.07;13.83;;;;;;;;;;5060192;28;20264;-71
2022/03/31 12:58:37;;;;;;;17.43;13.53;;;;;;;;;;5057364;28;20185;-71
2022/03/31 13:01:04;;;;;;;19.87;14.63;;;;;;;;;;5058505;28;20240;-72
2022/03/31 13:03:31;;;;;;;20.10;14.63;;;;;;;;;;5059663;28;20217;-72
2022/03/31 13:06:01;;;;;;;19.27;14.47;;;;;;;;;;5064978;28;20188;-72
2022/03/31 13:08:30;;;;;;;18.67;14.60;;;;;;;;;;5043433;28;20211;-72
2022/03/31 13:10:58;;;;;;;18.67;14.00;;;;;;;;;;5059677;28;20256;-72
2022/03/31 13:13:25;;;;;;;18.43;13.73;;;;;;;;;;5060287;28;20251;-72
2022/03/31 13:15:52;;;;;;;21.63;14.37;;;;;;;;;;5062227;28;20272;-72
2022/03/31 13:18:24;;;;;;;20.80;15.13;;;;;;;;;;5061336;28;20233;-72
2022/03/31 13:20:51;;;;;;;17.93;13.60;;;;;;;;;;5058932;28;20304;-71
2022/03/31 13:23:18;;;;;;;21.83;15.83;;;;;;;;;;5060194;28;20212;-72
2022/03/31 13:25:46;;;;;;;20.80;14.83;;;;;;;;;;5060851;28;20197;-72
2022/03/31 13:28:17;;;;;;;20.60;15.30;;;;;;;;;;5060109;28;20189;-72
2022/03/31 13:30:43;;;;;;;21.40;15.63;;;;;;;;;;5060366;28;20243;-72
2022/03/31 13:33:12;;;;;;;21.67;17.07;;;;;;;;;;5058023;28;20201;-72
2022/03/31 13:35:42;;;;;;;21.23;15.63;;;;;;;;;;5061064;28;20177;-72
2022/03/31 13:38:08;;;;;;;20.73;15.53;;;;;;;;;;5060027;28;20231;-72
2022/03/31 13:40:37;;;;;;;22.70;16.00;;;;;;;;;;5061396;28;20205;-72
2022/03/31 13:43:06;;;;;;;21.43;15.87;;;;;;;;;;5060128;28;20201;-72
2022/03/31 13:45:36;;;;;;;21.90;16.73;;;;;;;;;;5059064;28;20193;-72
2022/03/31 13:48:03;;;;;;;23.70;16.23;;;;;;;;;;5060237;28;20192;-72
2022/03/31 13:50:33;;;;;;;23.13;17.53;;;;;;;;;;5056671;28;20224;-71
2022/03/31 13:55:51;;;;;;;21.93;16.57;;;;;;;;;;5059476;28;20200;-72
2022/03/31 14:01:08;;;;;;;22.83;17.20;;;;;;;;;;5058048;28;20213;-72
2022/03/31 14:03:44;;;;;;;20.43;16.37;;;;;;;;;;5059981;28;20217;-72
2022/03/31 14:06:13;;;;;;;24.93;18.03;;;;;;;;;;5059464;28;20174;-72
2022/03/31 14:08:39;;;;;;;23.40;16.90;;;;;;;;;;5058162;28;20322;-73
2022/03/31 14:11:06;;;;;;;23.90;17.73;;;;;;;;;;5060391;28;20683;-73
2022/03/31 14:13:33;;;;;;;23.30;17.23;;;;;;;;;;5061248;28;20201;-72
2022/03/31 14:16:02;;;;;;;24.63;18.50;;;;;;;;;;5058954;28;20190;-73
2022/03/31 14:18:29;;;;;;;24.83;18.97;;;;;;;;;;5058054;28;20219;-73
2022/03/31 14:20:56;;;;;;;21.00;16.70;;;;;;;;;;5059472;28;20210;-73
2022/03/31 14:23:22;;;;;;;25.67;17.83;;;;;;;;;;5060382;28;20217;-72
2022/03/31 14:25:48;;;;;;;21.60;17.00;;;;;;;;;;5057716;28;20592;-73
2022/03/31 14:28:14;;;;;;;22.30;17.40;;;;;;;;;;5060193;28;20182;-73
2022/03/31 14:30:42;;;;;;;24.20;17.30;;;;;;;;;;5058618;28;20275;-72
2022/03/31 14:33:09;;;;;;;25.20;18.03;;;;;;;;;;5060910;28;20205;-72
2022/03/31 14:35:35;;;;;;;24.90;17.97;;;;;;;;;;5059719;28;20227;-73
2022/03/31 14:38:01;;;;;;;24.27;18.20;;;;;;;;;;5043838;28;20217;-73